sensor_id;sensor_type;location;lat;lon;timestamp;pressure;altitude;pressure_sealevel;temperature;humidity
79455;BME280;68900;52.134;5.420;2023-11-21T08:46:01;101742.94;;;9.71;100.00
79455;BME280;68900;52.134;5.420;2023-11-21T09:56:17;101849.63;;;9.85;100.00
79455;BME280;68900;52.134;5.420;2023-11-21T09:58:51;101856.84;;;9.84;100.00
79455;BME280;68900;52.134;5.420;2023-11-21T10:01:19;101856.00;;;9.84;100.00
79455;BME280;68900;52.134;5.420;2023-11-21T10:03:47;101856.22;;;9.81;100.00
79455;BME280;68900;52.134;5.420;2023-11-21T10:06:14;101859.66;;;9.83;100.00
79455;BME280;68900;52.134;5.420;2023-11-21T10:08:42;101865.31;;;9.80;100.00
79455;BME280;68900;52.134;5.420;2023-11-21T10:11:24;101863.31;;;9.82;100.00
79455;BME280;68900;52.134;5.420;2023-11-21T10:13:56;101873.38;;;9.80;100.00
79455;BME280;68900;52.134;5.420;2023-11-21T10:16:26;101867.84;;;9.81;100.00
79455;BME280;68900;52.134;5.420;2023-11-21T10:18:53;101881.22;;;9.83;100.00
79455;BME280;68900;52.134;5.420;2023-11-21T10:21:38;101891.03;;;9.84;100.00
79455;BME280;68900;52.134;5.420;2023-11-21T10:24:05;101895.31;;;9.86;100.00
79455;BME280;68900;52.134;5.420;2023-11-21T10:26:33;101898.16;;;9.85;100.00
79455;BME280;68900;52.134;5.420;2023-11-21T10:29:16;101905.13;;;9.87;100.00
79455;BME280;68900;52.134;5.420;2023-11-21T10:31:50;101905.88;;;9.89;100.00
79455;BME280;68900;52.134;5.420;2023-11-21T10:34:19;101902.91;;;9.92;100.00
79455;BME280;68900;52.134;5.420;2023-11-21T10:42:09;101921.03;;;9.79;100.00
79455;BME280;68900;52.134;5.420;2023-11-21T10:44:41;101930.94;;;9.79;100.00
79455;BME280;68900;52.134;5.420;2023-11-21T10:47:10;101938.19;;;9.78;100.00
79455;BME280;68900;52.134;5.420;2023-11-21T10:49:50;101947.38;;;9.75;100.00
79455;BME280;68900;52.134;5.420;2023-11-21T10:52:30;101954.69;;;9.73;100.00
79455;BME280;68900;52.134;5.420;2023-11-21T10:54:56;101964.50;;;9.74;100.00
79455;BME280;68900;52.134;5.420;2023-11-21T10:57:31;101955.56;;;9.74;100.00
79455;BME280;68900;52.134;5.420;2023-11-21T10:59:57;101958.16;;;9.75;100.00
79455;BME280;68900;52.134;5.420;2023-11-21T11:02:24;101970.97;;;9.72;100.00
79455;BME280;68900;52.134;5.420;2023-11-21T11:04:54;101968.28;;;9.72;100.00
79455;BME280;68900;52.134;5.420;2023-11-21T11:07:27;101970.13;;;9.71;100.00
79455;BME280;68900;52.134;5.420;2023-11-21T11:10:00;101970.00;;;9.73;100.00
79455;BME280;68900;52.134;5.420;2023-11-21T11:12:27;101963.66;;;9.74;100.00
79455;BME280;68900;52.134;5.420;2023-11-21T11:14:55;101966.25;;;9.75;100.00
79455;BME280;68900;52.134;5.420;2023-11-21T11:17:22;101966.25;;;9.75;100.00
79455;BME280;68900;52.134;5.420;2023-11-21T11:19:54;101964.25;;;9.77;100.00
79455;BME280;68900;52.134;5.420;2023-11-21T11:34:41;101984.34;;;9.73;100.00
79455;BME280;68900;52.134;5.420;2023-11-21T11:37:10;101984.97;;;9.77;100.00
79455;BME280;68900;52.134;5.420;2023-11-21T11:48:00;101998.06;;;9.82;100.00
79455;BME280;68900;52.134;5.420;2023-11-21T11:50:27;101991.09;;;9.79;100.00
79455;BME280;68900;52.134;5.420;2023-11-21T11:52:54;101998.94;;;9.82;100.00
79455;BME280;68900;52.134;5.420;2023-11-21T11:55:23;102006.06;;;9.83;100.00
79455;BME280;68900;52.134;5.420;2023-11-21T11:57:54;102005.31;;;9.81;100.00
79455;BME280;68900;52.134;5.420;2023-11-21T12:00:23;102006.16;;;9.82;100.00
79455;BME280;68900;52.134;5.420;2023-11-21T12:03:03;102006.06;;;9.83;100.00
79455;BME280;68900;52.134;5.420;2023-11-21T12:05:34;102015.00;;;9.84;100.00
79455;BME280;68900;52.134;5.420;2023-11-21T12:08:11;102021.13;;;9.86;100.00
79455;BME280;68900;52.134;5.420;2023-11-21T12:10:39;102028.47;;;9.84;100.00
79455;BME280;68900;52.134;5.420;2023-11-21T12:13:09;102030.41;;;9.82;100.00
79455;BME280;68900;52.134;5.420;2023-11-21T12:15:40;102024.16;;;9.81;100.00
79455;BME280;68900;52.134;5.420;2023-11-21T12:18:10;102028.59;;;9.82;100.00
79455;BME280;68900;52.134;5.420;2023-11-21T12:20:37;102033.13;;;9.82;100.00
79455;BME280;68900;52.134;5.420;2023-11-21T12:23:08;102037.53;;;9.83;100.00
79455;BME280;68900;52.134;5.420;2023-11-21T12:25:36;102037.66;;;9.81;100.00
79455;BME280;68900;52.134;5.420;2023-11-21T12:28:03;102039.63;;;9.79;100.00
79455;BME280;68900;52.134;5.420;2023-11-21T12:30:33;102043.28;;;9.78;100.00
79455;BME280;68900;52.134;5.420;2023-11-21T12:33:02;102042.66;;;9.74;100.00
79455;BME280;68900;52.134;5.420;2023-11-21T12:35:31;102036.41;;;9.74;100.00
79455;BME280;68900;52.134;5.420;2023-11-21T12:38:01;102040.81;;;9.75;100.00
79455;BME280;68900;52.134;5.420;2023-11-21T12:40:31;102033.72;;;9.74;100.00
79455;BME280;68900;52.134;5.420;2023-11-21T12:42:59;102035.53;;;9.73;100.00
79455;BME280;68900;52.134;5.420;2023-11-21T12:45:28;102047.28;;;9.72;100.00
79455;BME280;68900;52.134;5.420;2023-11-21T12:48:00;102050.84;;;9.73;100.00
79455;BME280;68900;52.134;5.420;2023-11-21T12:50:30;102050.75;;;9.74;100.00
79455;BME280;68900;52.134;5.420;2023-11-21T12:53:02;102061.53;;;9.74;100.00
79455;BME280;68900;52.134;5.420;2023-11-21T12:55:31;102062.59;;;9.72;100.00
79455;BME280;68900;52.134;5.420;2023-11-21T12:58:01;102065.06;;;9.75;100.00
79455;BME280;68900;52.134;5.420;2023-11-21T13:00:39;102065.19;;;9.73;100.00
79455;BME280;68900;52.134;5.420;2023-11-21T13:03:08;102068.63;;;9.75;100.00
79455;BME280;68900;52.134;5.420;2023-11-21T13:05:37;102073.78;;;9.79;100.00
79455;BME280;68900;52.134;5.420;2023-11-21T13:08:14;102069.97;;;9.81;100.00
79455;BME280;68900;52.134;5.420;2023-11-21T13:10:46;102078.72;;;9.85;100.00
79455;BME280;68900;52.134;5.420;2023-11-21T13:13:17;102080.19;;;9.89;100.00
79455;BME280;68900;52.134;5.420;2023-11-21T13:15:51;102086.66;;;9.86;100.00
79455;BME280;68900;52.134;5.420;2023-11-21T13:18:19;102091.09;;;9.87;100.00
79455;BME280;68900;52.134;5.420;2023-11-21T13:20:52;102096.38;;;9.89;100.00
79455;BME280;68900;52.134;5.420;2023-11-21T13:23:19;102098.06;;;9.90;100.00
79455;BME280;68900;52.134;5.420;2023-11-21T13:25:46;102093.53;;;9.90;100.00
79455;BME280;68900;52.134;5.420;2023-11-21T13:28:23;102103.47;;;9.90;100.00
79455;BME280;68900;52.134;5.420;2023-11-21T13:30:53;102099.78;;;9.91;100.00
79455;BME280;68900;52.134;5.420;2023-11-21T13:33:19;102110.47;;;9.92;100.00
79455;BME280;68900;52.134;5.420;2023-11-21T13:35:49;102114.25;;;9.90;100.00
79455;BME280;68900;52.134;5.420;2023-11-21T13:38:18;102117.06;;;9.88;100.00
79455;BME280;68900;52.134;5.420;2023-11-21T13:40:50;102114.94;;;9.81;100.00
79455;BME280;68900;52.134;5.420;2023-11-21T13:43:22;102127.44;;;9.82;100.00
79455;BME280;68900;52.134;5.420;2023-11-21T13:45:54;102127.44;;;9.82;100.00
79455;BME280;68900;52.134;5.420;2023-11-21T13:48:33;102132.09;;;9.80;100.00
79455;BME280;68900;52.134;5.420;2023-11-21T13:51:11;102135.25;;;9.73;100.00
79455;BME280;68900;52.134;5.420;2023-11-21T13:53:45;102137.53;;;9.67;100.00
79455;BME280;68900;52.134;5.420;2023-11-21T13:56:21;102149.41;;;9.64;100.00
79455;BME280;68900;52.134;5.420;2023-11-21T13:58:51;102151.56;;;9.59;100.00
79455;BME280;68900;52.134;5.420;2023-11-21T14:01:21;102156.34;;;9.56;100.00
79455;BME280;68900;52.134;5.420;2023-11-21T14:04:03;102155.56;;;9.54;100.00
79455;BME280;68900;52.134;5.420;2023-11-21T14:06:43;102152.88;;;9.54;100.00
79455;BME280;68900;52.134;5.420;2023-11-21T14:09:19;102162.91;;;9.52;100.00
79455;BME280;68900;52.134;5.420;2023-11-21T14:11:51;102159.47;;;9.50;100.00
79455;BME280;68900;52.134;5.420;2023-11-21T14:14:20;102164.84;;;9.50;100.00
79455;BME280;68900;52.134;5.420;2023-11-21T14:16:47;102170.66;;;9.44;100.00
79455;BME280;68900;52.134;5.420;2023-11-21T14:19:14;102174.69;;;9.38;100.00
79455;BME280;68900;52.134;5.420;2023-11-21T14:21:44;102177.59;;;9.35;100.00
79455;BME280;68900;52.134;5.420;2023-11-21T14:24:12;102180.19;;;9.37;100.00
79455;BME280;68900;52.134;5.420;2023-11-21T14:26:45;102179.41;;;9.35;100.00
79455;BME280;68900;52.134;5.420;2023-11-21T14:29:13;102181.16;;;9.36;100.00
79455;BME280;68900;52.134;5.420;2023-11-21T14:31:47;102186.63;;;9.34;100.00
79455;BME280;68900;52.134;5.420;2023-11-21T14:37:29;102200.31;;;9.31;100.00
79455;BME280;68900;52.134;5.420;2023-11-21T14:46:57;102220.59;;;9.24;100.00
79455;BME280;68900;52.134;5.420;2023-11-21T14:49:25;102229.53;;;9.24;100.00
79455;BME280;68900;52.134;5.420;2023-11-21T14:51:54;102235.25;;;9.20;100.00
79455;BME280;68900;52.134;5.420;2023-11-21T14:54:31;102249.03;;;9.15;100.00
79455;BME280;68900;52.134;5.420;2023-11-21T14:59:56;102256.66;;;8.96;100.00
79455;BME280;68900;52.134;5.420;2023-11-21T15:02:33;102266.75;;;8.93;100.00
79455;BME280;68900;52.134;5.420;2023-11-21T15:09:07;102265.88;;;8.79;100.00
79455;BME280;68900;52.134;5.420;2023-11-21T15:24:28;102311.53;;;8.81;100.00
79455;BME280;68900;52.134;5.420;2023-11-21T15:26:54;102314.13;;;8.82;100.00
79455;BME280;68900;52.134;5.420;2023-11-21T15:29:24;102321.34;;;8.82;100.00
79455;BME280;68900;52.134;5.420;2023-11-21T15:31:51;102328.75;;;8.78;100.00
79455;BME280;68900;52.134;5.420;2023-11-21T15:34:22;102332.81;;;8.71;99.64
79455;BME280;68900;52.134;5.420;2023-11-21T15:46:38;102365.34;;;8.54;99.16
79455;BME280;68900;52.134;5.420;2023-11-21T15:58:55;102381.91;;;8.34;97.52
79455;BME280;68900;52.134;5.420;2023-11-21T16:01:24;102399.22;;;8.30;97.60
79455;BME280;68900;52.134;5.420;2023-11-21T16:03:55;102405.72;;;8.26;97.23
79455;BME280;68900;52.134;5.420;2023-11-21T16:06:29;102406.09;;;8.20;97.67
79455;BME280;68900;52.134;5.420;2023-11-21T16:08:56;102414.94;;;8.22;97.55
79455;BME280;68900;52.134;5.420;2023-11-21T16:11:24;102409.94;;;8.16;96.96
79455;BME280;68900;52.134;5.420;2023-11-21T16:13:52;102415.53;;;8.13;97.19
79455;BME280;68900;52.134;5.420;2023-11-21T16:16:38;102422.91;;;8.09;97.89
79455;BME280;68900;52.134;5.420;2023-11-21T16:19:05;102428.28;;;8.09;98.09
79455;BME280;68900;52.134;5.420;2023-11-21T16:21:33;102433.56;;;8.11;97.78
79455;BME280;68900;52.134;5.420;2023-11-21T16:41:31;102468.59;;;7.95;97.79
79455;BME280;68900;52.134;5.420;2023-11-21T16:44:33;102474.44;;;8.02;97.78
79455;BME280;68900;52.134;5.420;2023-11-21T16:50:36;102490.75;;;7.84;97.36
79455;BME280;68900;52.134;5.420;2023-11-21T16:53:03;102490.75;;;7.84;96.39
79455;BME280;68900;52.134;5.420;2023-11-21T16:55:29;102496.09;;;7.84;96.80
79455;BME280;68900;52.134;5.420;2023-11-21T16:57:56;102508.88;;;7.81;96.86
79455;BME280;68900;52.134;5.420;2023-11-21T17:00:24;102517.22;;;7.76;96.55
79455;BME280;68900;52.134;5.420;2023-11-21T17:02:51;102518.25;;;7.74;96.90
79455;BME280;68900;52.134;5.420;2023-11-21T17:05:18;102527.44;;;7.70;96.05
79455;BME280;68900;52.134;5.420;2023-11-21T17:07:54;102531.19;;;7.67;96.93
79455;BME280;68900;52.134;5.420;2023-11-21T17:10:30;102538.25;;;7.68;96.70
79455;BME280;68900;52.134;5.420;2023-11-21T17:12:59;102549.28;;;7.64;96.74
79455;BME280;68900;52.134;5.420;2023-11-21T17:15:36;102544.28;;;7.58;96.46
79455;BME280;68900;52.134;5.420;2023-11-21T17:18:05;102548.59;;;7.60;96.66
79455;BME280;68900;52.134;5.420;2023-11-21T17:27:18;102574.19;;;7.51;96.55
79455;BME280;68900;52.134;5.420;2023-11-21T17:30:33;102574.09;;;7.37;97.02
79455;BME280;68900;52.134;5.420;2023-11-21T17:33:03;102583.22;;;7.35;96.71
79455;BME280;68900;52.134;5.420;2023-11-21T17:35:29;102592.38;;;7.31;97.23
79455;BME280;68900;52.134;5.420;2023-11-21T17:37:56;102596.19;;;7.27;96.61
79455;BME280;68900;52.134;5.420;2023-11-21T17:40:22;102603.63;;;7.22;96.71
79455;BME280;68900;52.134;5.420;2023-11-21T17:42:49;102605.56;;;7.20;96.96
79455;BME280;68900;52.134;5.420;2023-11-21T17:45:16;102608.69;;;7.12;97.28
79455;BME280;68900;52.134;5.420;2023-11-21T17:47:42;102611.59;;;7.07;96.41
79455;BME280;68900;52.134;5.420;2023-11-21T17:50:09;102612.44;;;7.08;96.99
79455;BME280;68900;52.134;5.420;2023-11-21T17:52:36;102612.56;;;7.06;96.76
79455;BME280;68900;52.134;5.420;2023-11-21T17:55:05;102610.91;;;7.04;97.05
79455;BME280;68900;52.134;5.420;2023-11-21T17:57:32;102616.13;;;7.07;97.36
79455;BME280;68900;52.134;5.420;2023-11-21T17:59:59;102617.94;;;7.06;96.94
79455;BME280;68900;52.134;5.420;2023-11-21T18:02:25;102617.81;;;7.08;97.32
79455;BME280;68900;52.134;5.420;2023-11-21T18:04:54;102618.25;;;7.00;97.46
79455;BME280;68900;52.134;5.420;2023-11-21T18:07:23;102622.00;;;6.98;97.03
79455;BME280;68900;52.134;5.420;2023-11-21T18:09:50;102629.31;;;6.94;96.79
79455;BME280;68900;52.134;5.420;2023-11-21T18:12:16;102623.88;;;6.96;96.89
79455;BME280;68900;52.134;5.420;2023-11-21T18:14:45;102628.44;;;6.94;97.07
79455;BME280;68900;52.134;5.420;2023-11-21T18:17:18;102638.47;;;6.90;97.24
79455;BME280;68900;52.134;5.420;2023-11-21T18:19:46;102645.84;;;6.87;97.33
79455;BME280;68900;52.134;5.420;2023-11-21T18:22:15;102650.66;;;6.80;97.04
79455;BME280;68900;52.134;5.420;2023-11-21T18:24:41;102649.88;;;6.78;97.18
79455;BME280;68900;52.134;5.420;2023-11-21T18:27:08;102651.44;;;6.82;97.08
79455;BME280;68900;52.134;5.420;2023-11-21T18:29:37;102652.50;;;6.80;97.06
79455;BME280;68900;52.134;5.420;2023-11-21T18:32:04;102654.13;;;6.82;97.48
79455;BME280;68900;52.134;5.420;2023-11-21T18:34:36;102672.22;;;6.79;97.67
79455;BME280;68900;52.134;5.420;2023-11-21T18:37:02;102675.59;;;6.82;97.25
79455;BME280;68900;52.134;5.420;2023-11-21T18:39:29;102674.66;;;6.83;97.37
79455;BME280;68900;52.134;5.420;2023-11-21T18:41:59;102677.66;;;6.77;97.49
79455;BME280;68900;52.134;5.420;2023-11-21T18:44:25;102678.59;;;6.76;97.78
79455;BME280;68900;52.134;5.420;2023-11-21T18:46:53;102673.22;;;6.76;97.50
79455;BME280;68900;52.134;5.420;2023-11-21T18:49:19;102678.53;;;6.78;97.47
79455;BME280;68900;52.134;5.420;2023-11-21T18:51:46;102682.63;;;6.68;97.54
79455;BME280;68900;52.134;5.420;2023-11-21T18:54:14;102680.03;;;6.66;98.21
79455;BME280;68900;52.134;5.420;2023-11-21T18:56:40;102681.75;;;6.67;97.84
79455;BME280;68900;52.134;5.420;2023-11-21T18:59:09;102689.97;;;6.64;98.04
79455;BME280;68900;52.134;5.420;2023-11-21T19:01:36;102690.91;;;6.63;98.05
79455;BME280;68900;52.134;5.420;2023-11-21T19:04:05;102700.78;;;6.62;98.06
79455;BME280;68900;52.134;5.420;2023-11-21T19:06:31;102716.16;;;6.59;98.08
79455;BME280;68900;52.134;5.420;2023-11-21T19:08:59;102717.09;;;6.58;97.94
79455;BME280;68900;52.134;5.420;2023-11-21T19:11:25;102716.41;;;6.54;98.02
79455;BME280;68900;52.134;5.420;2023-11-21T19:13:53;102722.81;;;6.52;97.80
79455;BME280;68900;52.134;5.420;2023-11-21T19:16:20;102723.16;;;6.44;97.95
79455;BME280;68900;52.134;5.420;2023-11-21T19:18:47;102725.31;;;6.38;98.27
79455;BME280;68900;52.134;5.420;2023-11-21T19:21:17;102732.38;;;6.39;98.25
79455;BME280;68900;52.134;5.420;2023-11-21T19:23:46;102731.75;;;6.34;98.14
79455;BME280;68900;52.134;5.420;2023-11-21T19:26:12;102737.09;;;6.34;98.01
79455;BME280;68900;52.134;5.420;2023-11-21T19:28:40;102745.31;;;6.31;98.77
79455;BME280;68900;52.134;5.420;2023-11-21T19:31:17;102759.66;;;6.30;98.53
79455;BME280;68900;52.134;5.420;2023-11-21T19:33:45;102761.22;;;6.34;98.67
79455;BME280;68900;52.134;5.420;2023-11-21T19:36:12;102768.28;;;6.36;98.19
79455;BME280;68900;52.134;5.420;2023-11-21T19:38:39;102768.03;;;6.41;98.42
79455;BME280;68900;52.134;5.420;2023-11-21T19:41:13;102777.72;;;6.43;97.84
79455;BME280;68900;52.134;5.420;2023-11-21T19:43:39;102775.91;;;6.44;98.42
79455;BME280;68900;52.134;5.420;2023-11-21T19:46:08;102772.28;;;6.45;97.96
79455;BME280;68900;52.134;5.420;2023-11-21T19:48:34;102776.84;;;6.43;97.74
79455;BME280;68900;52.134;5.420;2023-11-21T19:51:02;102773.34;;;6.42;98.09
79455;BME280;68900;52.134;5.420;2023-11-21T19:53:31;102779.53;;;6.43;97.82
79455;BME280;68900;52.134;5.420;2023-11-21T19:56:04;102781.44;;;6.41;98.33
79455;BME280;68900;52.134;5.420;2023-11-21T19:58:36;102787.75;;;6.40;98.33
79455;BME280;68900;52.134;5.420;2023-11-21T20:01:03;102778.19;;;6.34;98.09
79455;BME280;68900;52.134;5.420;2023-11-21T20:03:29;102783.72;;;6.31;98.01
79455;BME280;68900;52.134;5.420;2023-11-21T20:05:56;102783.00;;;6.28;98.26
79455;BME280;68900;52.134;5.420;2023-11-21T20:08:23;102781.25;;;6.27;97.88
79455;BME280;68900;52.134;5.420;2023-11-21T20:10:49;102785.81;;;6.25;98.75
79455;BME280;68900;52.134;5.420;2023-11-21T20:13:16;102777.94;;;6.21;98.63
79455;BME280;68900;52.134;5.420;2023-11-21T20:15:43;102787.72;;;6.22;98.25
79455;BME280;68900;52.134;5.420;2023-11-21T20:18:10;102788.66;;;6.21;98.24
79455;BME280;68900;52.134;5.420;2023-11-21T20:20:38;102796.75;;;6.20;97.89
79455;BME280;68900;52.134;5.420;2023-11-21T20:23:12;102806.69;;;6.18;97.83
79455;BME280;68900;52.134;5.420;2023-11-21T20:25:39;102800.84;;;6.10;97.82
79455;BME280;68900;52.134;5.420;2023-11-21T20:28:08;102801.06;;;6.05;97.91
79455;BME280;68900;52.134;5.420;2023-11-21T20:30:35;102811.84;;;6.04;97.90
79455;BME280;68900;52.134;5.420;2023-11-21T20:33:01;102809.22;;;6.02;97.83
79455;BME280;68900;52.134;5.420;2023-11-21T20:35:34;102806.66;;;6.01;97.59
79455;BME280;68900;52.134;5.420;2023-11-21T20:38:07;102814.69;;;6.01;97.58
79455;BME280;68900;52.134;5.420;2023-11-21T20:40:34;102817.59;;;5.96;98.00
79455;BME280;68900;52.134;5.420;2023-11-21T20:43:05;102829.22;;;5.95;97.95
79455;BME280;68900;52.134;5.420;2023-11-21T20:45:34;102837.34;;;5.94;97.66
79455;BME280;68900;52.134;5.420;2023-11-21T20:48:02;102846.25;;;5.94;98.02
79455;BME280;68900;52.134;5.420;2023-11-21T20:50:29;102843.72;;;5.91;97.55
79455;BME280;68900;52.134;5.420;2023-11-21T20:52:56;102849.31;;;5.85;97.49
79455;BME280;68900;52.134;5.420;2023-11-21T20:55:22;102857.09;;;5.91;97.90
79455;BME280;68900;52.134;5.420;2023-11-21T20:57:48;102857.09;;;5.91;97.94
79455;BME280;68900;52.134;5.420;2023-11-21T21:00:15;102862.31;;;5.94;97.16
79455;BME280;68900;52.134;5.420;2023-11-21T21:02:44;102868.53;;;5.95;97.04
79455;BME280;68900;52.134;5.420;2023-11-21T21:05:13;102868.53;;;5.95;96.85
79455;BME280;68900;52.134;5.420;2023-11-21T21:07:41;102868.59;;;5.93;96.68
79455;BME280;68900;52.134;5.420;2023-11-21T21:10:10;102877.66;;;5.91;96.82
79455;BME280;68900;52.134;5.420;2023-11-21T21:12:39;102879.63;;;5.87;96.56
79455;BME280;68900;52.134;5.420;2023-11-21T21:15:08;102885.59;;;5.92;96.40
79455;BME280;68900;52.134;5.420;2023-11-21T21:17:38;102896.59;;;5.86;96.70
79455;BME280;68900;52.134;5.420;2023-11-21T21:20:07;102890.38;;;5.86;96.49
79455;BME280;68900;52.134;5.420;2023-11-21T21:22:37;102885.34;;;5.78;96.83
79455;BME280;68900;52.134;5.420;2023-11-21T21:25:06;102890.56;;;5.81;97.17
79455;BME280;68900;52.134;5.420;2023-11-21T21:27:32;102891.44;;;5.82;97.17
79455;BME280;68900;52.134;5.420;2023-11-21T21:29:59;102894.41;;;5.75;97.39
79455;BME280;68900;52.134;5.420;2023-11-21T21:32:25;102899.97;;;5.71;97.56
79455;BME280;68900;52.134;5.420;2023-11-21T21:34:52;102889.19;;;5.72;97.61
79455;BME280;68900;52.134;5.420;2023-11-21T21:37:20;102896.03;;;5.78;97.55
79455;BME280;68900;52.134;5.420;2023-11-21T21:39:47;102891.97;;;5.69;97.34
79455;BME280;68900;52.134;5.420;2023-11-21T21:42:14;102894.66;;;5.69;98.21
79455;BME280;68900;52.134;5.420;2023-11-21T21:44:40;102897.75;;;5.60;98.10
79455;BME280;68900;52.134;5.420;2023-11-21T21:47:07;102904.66;;;5.66;97.97
79455;BME280;68900;52.134;5.420;2023-11-21T21:49:33;102913.81;;;5.60;98.04
79455;BME280;68900;52.134;5.420;2023-11-21T21:52:01;102911.09;;;5.62;98.32
79455;BME280;68900;52.134;5.420;2023-11-21T21:54:28;102910.22;;;5.61;98.45
79455;BME280;68900;52.134;5.420;2023-11-21T21:56:54;102919.06;;;5.63;98.36
79455;BME280;68900;52.134;5.420;2023-11-21T21:59:21;102922.47;;;5.67;98.26
79455;BME280;68900;52.134;5.420;2023-11-21T22:01:48;102929.47;;;5.69;97.93
79455;BME280;68900;52.134;5.420;2023-11-21T22:04:14;102927.66;;;5.70;98.52
79455;BME280;68900;52.134;5.420;2023-11-21T22:06:41;102925.91;;;5.69;97.71
79455;BME280;68900;52.134;5.420;2023-11-21T22:09:08;102927.97;;;5.64;97.77
79455;BME280;68900;52.134;5.420;2023-11-21T22:11:36;102936.41;;;5.55;97.92
79455;BME280;68900;52.134;5.420;2023-11-21T22:14:02;102942.69;;;5.54;98.38
79455;BME280;68900;52.134;5.420;2023-11-21T22:16:30;102953.31;;;5.55;98.10
79455;BME280;68900;52.134;5.420;2023-11-21T22:18:57;102963.06;;;5.56;98.15
79455;BME280;68900;52.134;5.420;2023-11-21T22:21:24;102960.50;;;5.55;98.04
79455;BME280;68900;52.134;5.420;2023-11-21T22:23:52;102961.41;;;5.54;97.68
79455;BME280;68900;52.134;5.420;2023-11-21T22:26:19;102960.59;;;5.52;97.27
79455;BME280;68900;52.134;5.420;2023-11-21T22:28:51;102964.09;;;5.54;97.51
79455;BME280;68900;52.134;5.420;2023-11-21T22:31:18;102963.22;;;5.53;97.51
79455;BME280;68900;52.134;5.420;2023-11-21T22:33:45;102961.41;;;5.54;97.41
79455;BME280;68900;52.134;5.420;2023-11-21T22:36:14;102966.78;;;5.54;97.42
79455;BME280;68900;52.134;5.420;2023-11-21T22:38:43;102965.09;;;5.51;97.41
79455;BME280;68900;52.134;5.420;2023-11-21T22:41:09;102973.19;;;5.50;97.94
79455;BME280;68900;52.134;5.420;2023-11-21T22:43:36;102969.56;;;5.51;97.19
79455;BME280;68900;52.134;5.420;2023-11-21T22:46:03;102970.44;;;5.51;97.28
79455;BME280;68900;52.134;5.420;2023-11-21T22:48:31;102974.84;;;5.52;97.19
79455;BME280;68900;52.134;5.420;2023-11-21T22:51:01;102972.25;;;5.51;97.06
79455;BME280;68900;52.134;5.420;2023-11-21T22:53:28;102975.94;;;5.48;97.32
79455;BME280;68900;52.134;5.420;2023-11-21T22:55:54;102980.47;;;5.46;97.49
79455;BME280;68900;52.134;5.420;2023-11-21T22:58:21;102978.66;;;5.47;97.44
79455;BME280;68900;52.134;5.420;2023-11-21T23:00:47;102984.94;;;5.46;97.46
79455;BME280;68900;52.134;5.420;2023-11-21T23:03:14;102987.63;;;5.46;97.44
79455;BME280;68900;52.134;5.420;2023-11-21T23:05:41;102986.63;;;5.48;97.35
79455;BME280;68900;52.134;5.420;2023-11-21T23:08:07;102990.25;;;5.47;97.78
79455;BME280;68900;52.134;5.420;2023-11-21T23:10:35;102988.59;;;5.45;97.39
79455;BME280;68900;52.134;5.420;2023-11-21T23:13:02;102995.00;;;5.41;97.54
79455;BME280;68900;52.134;5.420;2023-11-21T23:15:28;102986.00;;;5.42;97.75
79455;BME280;68900;52.134;5.420;2023-11-21T23:17:55;102992.34;;;5.41;97.40
79455;BME280;68900;52.134;5.420;2023-11-21T23:20:21;103004.84;;;5.40;97.53
79455;BME280;68900;52.134;5.420;2023-11-21T23:22:49;103003.09;;;5.39;97.72
79455;BME280;68900;52.134;5.420;2023-11-21T23:25:16;103003.09;;;5.39;97.54
79455;BME280;68900;52.134;5.420;2023-11-21T23:27:44;102998.63;;;5.40;97.55
79455;BME280;68900;52.134;5.420;2023-11-21T23:30:11;103003.09;;;5.39;97.73
79455;BME280;68900;52.134;5.420;2023-11-21T23:32:37;103006.63;;;5.40;97.85
79455;BME280;68900;52.134;5.420;2023-11-21T23:35:08;103001.97;;;5.45;97.57
79455;BME280;68900;52.134;5.420;2023-11-21T23:37:37;102995.75;;;5.44;97.84
79455;BME280;68900;52.134;5.420;2023-11-21T23:40:06;102990.50;;;5.41;97.67
79455;BME280;68900;52.134;5.420;2023-11-21T23:42:34;102993.25;;;5.40;97.94
79455;BME280;68900;52.134;5.420;2023-11-21T23:45:01;102988.69;;;5.42;98.21
79455;BME280;68900;52.134;5.420;2023-11-21T23:47:28;102991.38;;;5.42;98.00
79455;BME280;68900;52.134;5.420;2023-11-21T23:49:56;102976.28;;;5.41;98.08
79455;BME280;68900;52.134;5.420;2023-11-21T23:52:24;102974.44;;;5.41;97.99
79455;BME280;68900;52.134;5.420;2023-11-21T23:54:50;102978.06;;;5.40;97.98
79455;BME280;68900;52.134;5.420;2023-11-21T23:57:17;102980.84;;;5.37;98.13
79455;BME280;68900;52.134;5.420;2023-11-21T23:59:44;102976.38;;;5.38;98.04
